sensor_id;sensor_type;location;lat;lon;timestamp;pressure;altitude;pressure_sealevel;temperature;humidity
71976;BME280;68326;52.124;5.424;2023-08-01T00:00:04;99910.16;;;15.99;100.00
71976;BME280;68326;52.124;5.424;2023-08-01T00:02:34;99900.59;;;15.98;100.00
71976;BME280;68326;52.124;5.424;2023-08-01T00:05:00;99885.56;;;15.90;100.00
71976;BME280;68326;52.124;5.424;2023-08-01T00:07:27;99895.19;;;15.89;100.00
71976;BME280;68326;52.124;5.424;2023-08-01T00:09:54;99891.91;;;15.87;100.00
71976;BME280;68326;52.124;5.424;2023-08-01T00:12:21;99901.41;;;15.88;100.00
71976;BME280;68326;52.124;5.424;2023-08-01T00:14:48;99897.81;;;15.80;100.00
71976;BME280;68326;52.124;5.424;2023-08-01T00:17:14;99896.00;;;15.80;100.00
71976;BME280;68326;52.124;5.424;2023-08-01T00:19:41;99890.88;;;15.79;100.00
71976;BME280;68326;52.124;5.424;2023-08-01T00:22:07;99889.94;;;15.80;100.00
71976;BME280;68326;52.124;5.424;2023-08-01T00:24:35;99880.16;;;15.82;100.00
71976;BME280;68326;52.124;5.424;2023-08-01T00:27:02;99879.31;;;15.81;100.00
71976;BME280;68326;52.124;5.424;2023-08-01T00:29:29;99876.69;;;15.81;100.00
71976;BME280;68326;52.124;5.424;2023-08-01T00:31:56;99873.22;;;15.81;100.00
71976;BME280;68326;52.124;5.424;2023-08-01T00:34:22;99865.22;;;15.82;100.00
71976;BME280;68326;52.124;5.424;2023-08-01T00:36:49;99860.97;;;15.81;100.00
71976;BME280;68326;52.124;5.424;2023-08-01T00:39:16;99857.75;;;15.78;100.00
71976;BME280;68326;52.124;5.424;2023-08-01T00:41:42;99855.44;;;15.75;100.00
71976;BME280;68326;52.124;5.424;2023-08-01T00:44:08;99840.75;;;15.72;100.00
71976;BME280;68326;52.124;5.424;2023-08-01T00:46:35;99844.34;;;15.71;100.00
71976;BME280;68326;52.124;5.424;2023-08-01T00:49:03;99845.88;;;15.74;100.00
71976;BME280;68326;52.124;5.424;2023-08-01T00:51:31;99830.16;;;15.74;100.00
71976;BME280;68326;52.124;5.424;2023-08-01T00:53:58;99818.22;;;15.69;100.00
71976;BME280;68326;52.124;5.424;2023-08-01T00:56:26;99822.78;;;15.67;100.00
71976;BME280;68326;52.124;5.424;2023-08-01T00:58:53;99829.25;;;15.63;100.00
71976;BME280;68326;52.124;5.424;2023-08-01T01:01:19;99825.13;;;15.61;100.00
71976;BME280;68326;52.124;5.424;2023-08-01T01:03:48;99824.13;;;15.62;100.00
71976;BME280;68326;52.124;5.424;2023-08-01T01:06:28;99820.84;;;15.60;100.00
71976;BME280;68326;52.124;5.424;2023-08-01T01:08:57;99811.03;;;15.52;100.00
71976;BME280;68326;52.124;5.424;2023-08-01T01:11:24;99813.09;;;15.48;100.00
71976;BME280;68326;52.124;5.424;2023-08-01T01:13:50;99808.94;;;15.46;100.00
71976;BME280;68326;52.124;5.424;2023-08-01T01:16:20;99810.88;;;15.44;100.00
71976;BME280;68326;52.124;5.424;2023-08-01T01:18:46;99817.22;;;15.41;100.00
71976;BME280;68326;52.124;5.424;2023-08-01T01:21:13;99813.78;;;15.41;100.00
71976;BME280;68326;52.124;5.424;2023-08-01T01:23:40;99814.84;;;15.38;100.00
71976;BME280;68326;52.124;5.424;2023-08-01T01:26:07;99819.66;;;15.33;100.00
71976;BME280;68326;52.124;5.424;2023-08-01T01:28:35;99824.09;;;15.33;100.00
71976;BME280;68326;52.124;5.424;2023-08-01T01:31:03;99818.16;;;15.31;100.00
71976;BME280;68326;52.124;5.424;2023-08-01T01:33:30;99815.06;;;15.25;100.00
71976;BME280;68326;52.124;5.424;2023-08-01T01:35:56;99817.69;;;15.25;100.00
71976;BME280;68326;52.124;5.424;2023-08-01T01:38:23;99814.94;;;15.27;100.00
71976;BME280;68326;52.124;5.424;2023-08-01T01:40:49;99816.88;;;15.25;100.00
71976;BME280;68326;52.124;5.424;2023-08-01T01:43:16;99813.56;;;15.23;100.00
71976;BME280;68326;52.124;5.424;2023-08-01T01:45:42;99809.28;;;15.22;100.00
71976;BME280;68326;52.124;5.424;2023-08-01T01:48:09;99819.19;;;15.18;100.00
71976;BME280;68326;52.124;5.424;2023-08-01T01:50:35;99807.19;;;15.16;100.00
71976;BME280;68326;52.124;5.424;2023-08-01T01:53:02;99816.97;;;15.14;100.00
71976;BME280;68326;52.124;5.424;2023-08-01T01:55:30;99808.44;;;15.12;100.00
71976;BME280;68326;52.124;5.424;2023-08-01T01:57:56;99806.06;;;15.08;100.00
71976;BME280;68326;52.124;5.424;2023-08-01T02:00:22;99809.66;;;15.07;100.00
71976;BME280;68326;52.124;5.424;2023-08-01T02:02:49;99810.47;;;15.08;100.00
71976;BME280;68326;52.124;5.424;2023-08-01T02:05:16;99808.81;;;15.07;100.00
71976;BME280;68326;52.124;5.424;2023-08-01T02:07:42;99807.16;;;15.06;100.00
71976;BME280;68326;52.124;5.424;2023-08-01T02:10:09;99813.38;;;15.05;100.00
71976;BME280;68326;52.124;5.424;2023-08-01T02:12:36;99805.34;;;15.06;100.00
71976;BME280;68326;52.124;5.424;2023-08-01T02:15:02;99802.72;;;15.06;100.00
71976;BME280;68326;52.124;5.424;2023-08-01T02:17:29;99807.16;;;15.06;100.00
71976;BME280;68326;52.124;5.424;2023-08-01T02:19:56;99803.81;;;15.04;100.00
71976;BME280;68326;52.124;5.424;2023-08-01T02:22:24;99793.22;;;15.05;100.00
71976;BME280;68326;52.124;5.424;2023-08-01T02:24:51;99785.63;;;15.02;100.00
71976;BME280;68326;52.124;5.424;2023-08-01T02:27:17;99785.50;;;15.04;100.00
71976;BME280;68326;52.124;5.424;2023-08-01T02:29:44;99788.94;;;15.04;100.00
71976;BME280;68326;52.124;5.424;2023-08-01T02:32:11;99795.28;;;15.02;100.00
71976;BME280;68326;52.124;5.424;2023-08-01T02:34:37;99794.31;;;15.03;100.00
71976;BME280;68326;52.124;5.424;2023-08-01T02:37:04;99793.91;;;15.07;100.00
71976;BME280;68326;52.124;5.424;2023-08-01T02:39:31;99787.47;;;15.12;100.00
71976;BME280;68326;52.124;5.424;2023-08-01T02:41:57;99790.66;;;15.15;100.00
71976;BME280;68326;52.124;5.424;2023-08-01T02:44:24;99807.63;;;15.21;100.00
71976;BME280;68326;52.124;5.424;2023-08-01T02:46:50;99814.38;;;15.23;100.00
71976;BME280;68326;52.124;5.424;2023-08-01T02:49:17;99804.75;;;15.24;100.00
71976;BME280;68326;52.124;5.424;2023-08-01T02:51:43;99813.31;;;15.26;100.00
71976;BME280;68326;52.124;5.424;2023-08-01T02:54:10;99811.63;;;15.25;100.00
71976;BME280;68326;52.124;5.424;2023-08-01T02:56:36;99813.31;;;15.26;100.00
71976;BME280;68326;52.124;5.424;2023-08-01T02:59:08;99813.16;;;15.27;100.00
71976;BME280;68326;52.124;5.424;2023-08-01T03:01:35;99816.47;;;15.29;100.00
71976;BME280;68326;52.124;5.424;2023-08-01T03:04:03;99810.28;;;15.31;100.00
71976;BME280;68326;52.124;5.424;2023-08-01T03:06:31;99804.88;;;15.32;100.00
71976;BME280;68326;52.124;5.424;2023-08-01T03:08:57;99804.22;;;15.30;100.00
71976;BME280;68326;52.124;5.424;2023-08-01T03:11:24;99796.19;;;15.32;100.00
71976;BME280;68326;52.124;5.424;2023-08-01T03:13:51;99797.03;;;15.32;100.00
71976;BME280;68326;52.124;5.424;2023-08-01T03:16:17;99800.50;;;15.33;100.00
71976;BME280;68326;52.124;5.424;2023-08-01T03:18:44;99795.25;;;15.33;100.00
71976;BME280;68326;52.124;5.424;2023-08-01T03:21:10;99795.25;;;15.33;100.00
71976;BME280;68326;52.124;5.424;2023-08-01T03:23:37;99796.06;;;15.33;100.00
71976;BME280;68326;52.124;5.424;2023-08-01T03:26:04;99808.34;;;15.33;100.00
71976;BME280;68326;52.124;5.424;2023-08-01T03:28:30;99807.50;;;15.32;100.00
71976;BME280;68326;52.124;5.424;2023-08-01T03:30:57;99806.00;;;15.29;100.00
71976;BME280;68326;52.124;5.424;2023-08-01T03:33:23;99788.88;;;15.25;100.00
71976;BME280;68326;52.124;5.424;2023-08-01T03:35:50;99792.34;;;15.26;100.00
71976;BME280;68326;52.124;5.424;2023-08-01T03:38:16;99796.72;;;15.25;100.00
71976;BME280;68326;52.124;5.424;2023-08-01T03:40:43;99801.28;;;15.23;100.00
71976;BME280;68326;52.124;5.424;2023-08-01T03:43:09;99812.72;;;15.22;100.00
71976;BME280;68326;52.124;5.424;2023-08-01T03:45:36;99804.88;;;15.22;100.00
71976;BME280;68326;52.124;5.424;2023-08-01T03:48:03;99810.25;;;15.21;100.00
71976;BME280;68326;52.124;5.424;2023-08-01T03:50:30;99803.06;;;15.23;100.00
71976;BME280;68326;52.124;5.424;2023-08-01T03:52:56;99802.66;;;15.27;100.00
71976;BME280;68326;52.124;5.424;2023-08-01T03:55:23;99800.03;;;15.27;100.00
71976;BME280;68326;52.124;5.424;2023-08-01T03:57:49;99804.06;;;15.32;100.00
71976;BME280;68326;52.124;5.424;2023-08-01T04:00:16;99801.59;;;15.30;100.00
71976;BME280;68326;52.124;5.424;2023-08-01T04:02:44;99793.75;;;15.30;100.00
71976;BME280;68326;52.124;5.424;2023-08-01T04:05:14;99800.63;;;15.31;100.00
71976;BME280;68326;52.124;5.424;2023-08-01T04:07:41;99806.56;;;15.33;100.00
71976;BME280;68326;52.124;5.424;2023-08-01T04:10:08;99810.69;;;15.36;100.00
71976;BME280;68326;52.124;5.424;2023-08-01T04:12:34;99807.13;;;15.37;100.00
71976;BME280;68326;52.124;5.424;2023-08-01T04:15:01;99806.16;;;15.38;100.00
71976;BME280;68326;52.124;5.424;2023-08-01T04:17:27;99803.28;;;15.41;100.00
71976;BME280;68326;52.124;5.424;2023-08-01T04:19:56;99805.75;;;15.42;100.00
71976;BME280;68326;52.124;5.424;2023-08-01T04:22:22;99807.53;;;15.42;100.00
71976;BME280;68326;52.124;5.424;2023-08-01T04:24:50;99804.81;;;15.43;100.00
71976;BME280;68326;52.124;5.424;2023-08-01T04:27:17;99804.81;;;15.43;100.00
71976;BME280;68326;52.124;5.424;2023-08-01T04:29:43;99795.53;;;15.39;100.00
71976;BME280;68326;52.124;5.424;2023-08-01T04:32:10;99798.28;;;15.38;100.00
71976;BME280;68326;52.124;5.424;2023-08-01T04:34:39;99792.34;;;15.36;100.00
71976;BME280;68326;52.124;5.424;2023-08-01T04:37:06;99794.16;;;15.35;100.00
71976;BME280;68326;52.124;5.424;2023-08-01T04:39:33;99789.03;;;15.34;100.00
71976;BME280;68326;52.124;5.424;2023-08-01T04:42:00;99786.41;;;15.34;100.00
71976;BME280;68326;52.124;5.424;2023-08-01T04:44:26;99792.63;;;15.33;100.00
71976;BME280;68326;52.124;5.424;2023-08-01T04:46:53;99792.47;;;15.34;100.00
71976;BME280;68326;52.124;5.424;2023-08-01T04:49:19;99789.72;;;15.36;100.00
71976;BME280;68326;52.124;5.424;2023-08-01T04:51:48;99792.91;;;15.39;100.00
71976;BME280;68326;52.124;5.424;2023-08-01T04:54:15;99786.56;;;15.42;100.00
71976;BME280;68326;52.124;5.424;2023-08-01T04:56:41;99785.47;;;15.44;100.00
71976;BME280;68326;52.124;5.424;2023-08-01T04:59:08;99785.91;;;15.49;100.00
71976;BME280;68326;52.124;5.424;2023-08-01T05:01:34;99793.50;;;15.53;100.00
71976;BME280;68326;52.124;5.424;2023-08-01T05:04:01;99798.47;;;15.56;100.00
71976;BME280;68326;52.124;5.424;2023-08-01T05:06:27;99795.44;;;15.60;100.00
71976;BME280;68326;52.124;5.424;2023-08-01T05:08:54;99804.44;;;15.67;100.00
71976;BME280;68326;52.124;5.424;2023-08-01T05:11:21;99797.72;;;15.75;100.00
71976;BME280;68326;52.124;5.424;2023-08-01T05:13:48;99801.44;;;15.82;100.00
71976;BME280;68326;52.124;5.424;2023-08-01T05:16:14;99801.59;;;15.90;100.00
71976;BME280;68326;52.124;5.424;2023-08-01T05:18:41;99798.97;;;15.90;100.00
71976;BME280;68326;52.124;5.424;2023-08-01T05:21:07;99804.91;;;15.92;100.00
71976;BME280;68326;52.124;5.424;2023-08-01T05:23:34;99811.66;;;15.95;100.00
71976;BME280;68326;52.124;5.424;2023-08-01T05:26:00;99809.19;;;15.93;100.00
71976;BME280;68326;52.124;5.424;2023-08-01T05:28:27;99810.69;;;15.96;100.00
71976;BME280;68326;52.124;5.424;2023-08-01T05:30:53;99809.44;;;16.00;100.00
71976;BME280;68326;52.124;5.424;2023-08-01T05:33:20;99805.19;;;15.99;100.00
71976;BME280;68326;52.124;5.424;2023-08-01T05:35:48;99806.97;;;15.98;100.00
71976;BME280;68326;52.124;5.424;2023-08-01T05:38:15;99806.81;;;16.00;100.00
71976;BME280;68326;52.124;5.424;2023-08-01T05:40:42;99816.38;;;16.01;100.00
71976;BME280;68326;52.124;5.424;2023-08-01T05:43:08;99812.91;;;16.00;100.00
71976;BME280;68326;52.124;5.424;2023-08-01T05:45:35;99819.81;;;16.01;100.00
71976;BME280;68326;52.124;5.424;2023-08-01T05:48:02;99821.19;;;16.05;100.00
71976;BME280;68326;52.124;5.424;2023-08-01T05:50:29;99819.97;;;16.09;100.00
71976;BME280;68326;52.124;5.424;2023-08-01T05:52:55;99817.75;;;16.15;100.00
71976;BME280;68326;52.124;5.424;2023-08-01T05:55:22;99818.59;;;16.15;100.00
71976;BME280;68326;52.124;5.424;2023-08-01T05:57:48;99826.16;;;16.18;100.00
71976;BME280;68326;52.124;5.424;2023-08-01T06:00:19;99820.09;;;16.18;100.00
71976;BME280;68326;52.124;5.424;2023-08-01T06:02:48;99829.34;;;16.22;100.00
71976;BME280;68326;52.124;5.424;2023-08-01T06:05:15;99821.63;;;16.20;100.00
71976;BME280;68326;52.124;5.424;2023-08-01T06:07:42;99832.81;;;16.22;100.00
71976;BME280;68326;52.124;5.424;2023-08-01T06:10:08;99826.72;;;16.22;100.00
71976;BME280;68326;52.124;5.424;2023-08-01T06:12:35;99831.44;;;16.28;100.00
71976;BME280;68326;52.124;5.424;2023-08-01T06:15:03;99833.63;;;16.33;100.00
71976;BME280;68326;52.124;5.424;2023-08-01T06:17:30;99836.53;;;16.39;100.00
71976;BME280;68326;52.124;5.424;2023-08-01T06:19:56;99835.84;;;16.47;100.00
71976;BME280;68326;52.124;5.424;2023-08-01T06:22:23;99839.97;;;16.49;100.00
71976;BME280;68326;52.124;5.424;2023-08-01T06:24:49;99845.22;;;16.49;100.00
71976;BME280;68326;52.124;5.424;2023-08-01T06:27:16;99844.38;;;16.49;100.00
71976;BME280;68326;52.124;5.424;2023-08-01T06:29:44;99845.06;;;16.61;100.00
71976;BME280;68326;52.124;5.424;2023-08-01T06:32:10;99848.38;;;16.63;100.00
71976;BME280;68326;52.124;5.424;2023-08-01T06:34:37;99850.56;;;16.67;100.00
71976;BME280;68326;52.124;5.424;2023-08-01T06:37:04;99847.13;;;16.67;100.00
71976;BME280;68326;52.124;5.424;2023-08-01T06:39:30;99848.06;;;16.76;100.00
71976;BME280;68326;52.124;5.424;2023-08-01T06:41:57;99854.31;;;16.84;100.00
71976;BME280;68326;52.124;5.424;2023-08-01T06:44:23;99855.69;;;16.88;100.00
71976;BME280;68326;52.124;5.424;2023-08-01T06:46:50;99854.56;;;16.91;100.00
71976;BME280;68326;52.124;5.424;2023-08-01T06:49:16;99860.75;;;17.00;100.00
71976;BME280;68326;52.124;5.424;2023-08-01T06:51:43;99851.63;;;17.04;100.00
71976;BME280;68326;52.124;5.424;2023-08-01T06:54:09;99861.00;;;17.06;100.00
71976;BME280;68326;52.124;5.424;2023-08-01T06:56:36;99859.47;;;17.14;100.00
71976;BME280;68326;52.124;5.424;2023-08-01T06:59:02;99859.47;;;17.14;100.00
71976;BME280;68326;52.124;5.424;2023-08-01T07:01:29;99862.22;;;17.22;100.00
71976;BME280;68326;52.124;5.424;2023-08-01T07:03:57;99859.16;;;17.26;100.00
71976;BME280;68326;52.124;5.424;2023-08-01T07:06:23;99854.13;;;17.33;100.00
71976;BME280;68326;52.124;5.424;2023-08-01T07:08:51;99850.28;;;17.27;100.00
71976;BME280;68326;52.124;5.424;2023-08-01T07:11:17;99861.91;;;17.25;100.00
71976;BME280;68326;52.124;5.424;2023-08-01T07:13:45;99850.28;;;17.27;100.00
71976;BME280;68326;52.124;5.424;2023-08-01T07:16:11;99842.97;;;17.21;100.00
71976;BME280;68326;52.124;5.424;2023-08-01T07:18:38;99850.56;;;17.34;100.00
71976;BME280;68326;52.124;5.424;2023-08-01T07:21:05;99859.88;;;17.46;100.00
71976;BME280;68326;52.124;5.424;2023-08-01T07:23:33;99848.88;;;17.61;100.00
71976;BME280;68326;52.124;5.424;2023-08-01T07:26:00;99848.66;;;17.72;100.00
71976;BME280;68326;52.124;5.424;2023-08-01T07:28:27;99847.25;;;17.78;100.00
71976;BME280;68326;52.124;5.424;2023-08-01T07:31:04;99852.81;;;17.75;99.71
71976;BME280;68326;52.124;5.424;2023-08-01T07:33:34;99858.63;;;17.50;100.00
71976;BME280;68326;52.124;5.424;2023-08-01T07:36:01;99864.78;;;17.31;100.00
71976;BME280;68326;52.124;5.424;2023-08-01T07:38:28;99865.88;;;17.11;100.00
71976;BME280;68326;52.124;5.424;2023-08-01T07:40:55;99876.53;;;17.00;100.00
71976;BME280;68326;52.124;5.424;2023-08-01T07:43:22;99870.59;;;16.98;100.00
71976;BME280;68326;52.124;5.424;2023-08-01T07:45:49;99870.34;;;16.91;100.00
71976;BME280;68326;52.124;5.424;2023-08-01T07:48:17;99878.38;;;16.89;100.00
71976;BME280;68326;52.124;5.424;2023-08-01T07:50:43;99873.78;;;16.91;100.00
71976;BME280;68326;52.124;5.424;2023-08-01T07:53:10;99879.34;;;16.88;100.00
71976;BME280;68326;52.124;5.424;2023-08-01T07:55:36;99876.16;;;16.85;100.00
71976;BME280;68326;52.124;5.424;2023-08-01T07:58:06;99886.13;;;16.81;100.00
71976;BME280;68326;52.124;5.424;2023-08-01T08:00:34;99877.81;;;16.76;100.00
71976;BME280;68326;52.124;5.424;2023-08-01T08:03:01;99888.88;;;16.70;100.00
71976;BME280;68326;52.124;5.424;2023-08-01T08:05:28;99887.91;;;16.71;100.00
71976;BME280;68326;52.124;5.424;2023-08-01T08:07:54;99886.91;;;16.91;100.00
71976;BME280;68326;52.124;5.424;2023-08-01T08:10:21;99883.97;;;17.14;100.00
71976;BME280;68326;52.124;5.424;2023-08-01T08:12:47;99891.63;;;17.45;100.00
71976;BME280;68326;52.124;5.424;2023-08-01T08:15:14;99894.16;;;17.64;100.00
71976;BME280;68326;52.124;5.424;2023-08-01T08:17:42;99883.53;;;17.84;99.99
71976;BME280;68326;52.124;5.424;2023-08-01T08:20:09;99877.97;;;17.87;99.58
71976;BME280;68326;52.124;5.424;2023-08-01T08:22:35;99881.03;;;17.82;97.10
71976;BME280;68326;52.124;5.424;2023-08-01T08:25:04;99882.72;;;17.73;96.13
71976;BME280;68326;52.124;5.424;2023-08-01T08:27:31;99877.19;;;17.77;97.87
71976;BME280;68326;52.124;5.424;2023-08-01T08:29:57;99891.03;;;17.79;97.89
71976;BME280;68326;52.124;5.424;2023-08-01T08:32:24;99883.41;;;17.85;97.48
71976;BME280;68326;52.124;5.424;2023-08-01T08:34:50;99891.31;;;18.03;97.45
71976;BME280;68326;52.124;5.424;2023-08-01T08:37:17;99890.78;;;18.00;93.06
71976;BME280;68326;52.124;5.424;2023-08-01T08:39:43;99894.16;;;17.92;94.12
71976;BME280;68326;52.124;5.424;2023-08-01T08:42:10;99898.75;;;17.90;92.30
71976;BME280;68326;52.124;5.424;2023-08-01T08:44:42;99890.03;;;18.07;92.52
71976;BME280;68326;52.124;5.424;2023-08-01T08:47:10;99885.16;;;18.30;90.24
71976;BME280;68326;52.124;5.424;2023-08-01T08:49:38;99893.25;;;18.55;86.55
71976;BME280;68326;52.124;5.424;2023-08-01T08:52:06;99884.34;;;18.74;84.69
71976;BME280;68326;52.124;5.424;2023-08-01T08:54:33;99884.88;;;18.78;84.56
71976;BME280;68326;52.124;5.424;2023-08-01T08:57:05;99891.19;;;18.85;85.82
71976;BME280;68326;52.124;5.424;2023-08-01T08:59:33;99886.69;;;18.77;83.69
71976;BME280;68326;52.124;5.424;2023-08-01T09:02:01;99884.59;;;18.63;84.25
71976;BME280;68326;52.124;5.424;2023-08-01T09:04:31;99891.00;;;18.42;84.05
71976;BME280;68326;52.124;5.424;2023-08-01T09:07:02;99895.97;;;18.63;83.47
71976;BME280;68326;52.124;5.424;2023-08-01T09:09:29;99887.81;;;18.74;82.39
71976;BME280;68326;52.124;5.424;2023-08-01T09:11:55;99901.81;;;18.75;82.11
71976;BME280;68326;52.124;5.424;2023-08-01T09:14:22;99898.44;;;18.65;82.21
71976;BME280;68326;52.124;5.424;2023-08-01T09:16:49;99907.66;;;18.43;84.08
71976;BME280;68326;52.124;5.424;2023-08-01T09:19:18;99921.81;;;18.24;85.60
71976;BME280;68326;52.124;5.424;2023-08-01T09:21:45;99921.03;;;18.13;87.44
71976;BME280;68326;52.124;5.424;2023-08-01T09:24:14;99924.94;;;18.09;88.01
71976;BME280;68326;52.124;5.424;2023-08-01T09:26:42;99918.78;;;18.01;89.44
71976;BME280;68326;52.124;5.424;2023-08-01T09:29:09;99936.69;;;18.15;88.97
71976;BME280;68326;52.124;5.424;2023-08-01T09:31:37;99924.22;;;18.17;88.78
71976;BME280;68326;52.124;5.424;2023-08-01T09:34:06;99932.41;;;18.14;87.35
71976;BME280;68326;52.124;5.424;2023-08-01T09:36:33;99931.22;;;18.26;89.58
71976;BME280;68326;52.124;5.424;2023-08-01T09:39:02;99938.41;;;18.42;87.69
71976;BME280;68326;52.124;5.424;2023-08-01T09:41:30;99946.19;;;18.44;86.70
71976;BME280;68326;52.124;5.424;2023-08-01T09:43:57;99952.97;;;18.28;87.50
71976;BME280;68326;52.124;5.424;2023-08-01T09:46:24;99965.38;;;17.90;90.63
71976;BME280;68326;52.124;5.424;2023-08-01T09:48:52;99951.25;;;17.54;93.15
71976;BME280;68326;52.124;5.424;2023-08-01T09:51:19;99953.25;;;17.32;96.35
71976;BME280;68326;52.124;5.424;2023-08-01T09:53:56;99960.97;;;17.44;98.00
71976;BME280;68326;52.124;5.424;2023-08-01T09:56:25;99952.47;;;17.60;97.08
71976;BME280;68326;52.124;5.424;2023-08-01T09:58:55;99946.34;;;17.59;96.33
71976;BME280;68326;52.124;5.424;2023-08-01T10:01:24;99956.31;;;17.65;98.52
71976;BME280;68326;52.124;5.424;2023-08-01T10:03:53;99960.75;;;17.65;95.22
71976;BME280;68326;52.124;5.424;2023-08-01T10:06:21;99956.16;;;17.77;97.11
71976;BME280;68326;52.124;5.424;2023-08-01T10:08:50;99956.78;;;17.88;94.86
71976;BME280;68326;52.124;5.424;2023-08-01T10:11:19;99950.28;;;18.10;94.58
71976;BME280;68326;52.124;5.424;2023-08-01T10:13:47;99960.13;;;18.36;95.70
71976;BME280;68326;52.124;5.424;2023-08-01T10:16:15;99960.78;;;18.74;92.69
71976;BME280;68326;52.124;5.424;2023-08-01T10:18:43;99965.47;;;18.62;90.64
71976;BME280;68326;52.124;5.424;2023-08-01T10:21:13;99967.19;;;18.53;91.74
71976;BME280;68326;52.124;5.424;2023-08-01T10:23:40;99971.25;;;18.30;88.72
71976;BME280;68326;52.124;5.424;2023-08-01T10:26:08;99968.72;;;18.10;87.85
71976;BME280;68326;52.124;5.424;2023-08-01T10:28:38;99967.41;;;17.97;nan
71976;BME280;68326;52.124;5.424;2023-08-01T10:31:09;99972.72;;;18.14;87.88
71976;BME280;68326;52.124;5.424;2023-08-01T10:33:37;99971.47;;;18.54;87.03
71976;BME280;68326;52.124;5.424;2023-08-01T10:36:17;99967.56;;;18.94;87.51
71976;BME280;68326;52.124;5.424;2023-08-01T10:38:48;99975.63;;;19.11;85.94
71976;BME280;68326;52.124;5.424;2023-08-01T10:43:51;99982.34;;;18.87;82.10
71976;BME280;68326;52.124;5.424;2023-08-01T10:46:18;99981.63;;;18.67;82.01
71976;BME280;68326;52.124;5.424;2023-08-01T10:48:52;99987.50;;;18.61;83.08
71976;BME280;68326;52.124;5.424;2023-08-01T10:51:19;99985.63;;;18.71;81.20
71976;BME280;68326;52.124;5.424;2023-08-01T10:53:45;99979.94;;;18.94;80.59
71976;BME280;68326;52.124;5.424;2023-08-01T10:56:17;99984.81;;;19.07;80.53
71976;BME280;68326;52.124;5.424;2023-08-01T10:58:44;99985.84;;;19.40;79.64
71976;BME280;68326;52.124;5.424;2023-08-01T11:01:11;99978.28;;;19.71;75.71
71976;BME280;68326;52.124;5.424;2023-08-01T11:03:39;99989.94;;;19.61;77.81
71976;BME280;68326;52.124;5.424;2023-08-01T11:06:08;99986.94;;;19.29;77.84
71976;BME280;68326;52.124;5.424;2023-08-01T11:08:39;99983.25;;;19.22;80.39
71976;BME280;68326;52.124;5.424;2023-08-01T11:11:13;99998.94;;;19.24;78.01
71976;BME280;68326;52.124;5.424;2023-08-01T11:13:41;99996.38;;;19.40;75.68
71976;BME280;68326;52.124;5.424;2023-08-01T11:16:15;99989.31;;;19.41;73.26
71976;BME280;68326;52.124;5.424;2023-08-01T11:18:42;99987.59;;;19.31;75.32
71976;BME280;68326;52.124;5.424;2023-08-01T11:21:09;99994.81;;;19.21;72.40
71976;BME280;68326;52.124;5.424;2023-08-01T11:23:36;99997.84;;;19.08;73.15
71976;BME280;68326;52.124;5.424;2023-08-01T11:26:09;100008.00;;;19.03;74.69
71976;BME280;68326;52.124;5.424;2023-08-01T11:28:36;100008.81;;;19.22;74.13
71976;BME280;68326;52.124;5.424;2023-08-01T11:31:11;100004.78;;;19.62;73.90
71976;BME280;68326;52.124;5.424;2023-08-01T11:33:41;100012.56;;;19.89;71.69
71976;BME280;68326;52.124;5.424;2023-08-01T11:36:08;100008.44;;;19.69;71.33
71976;BME280;68326;52.124;5.424;2023-08-01T11:38:35;100012.47;;;19.73;72.01
71976;BME280;68326;52.124;5.424;2023-08-01T11:41:03;100010.47;;;20.09;69.85
71976;BME280;68326;52.124;5.424;2023-08-01T11:43:50;100015.03;;;20.42;71.61
71976;BME280;68326;52.124;5.424;2023-08-01T11:46:17;100026.63;;;20.49;69.00
71976;BME280;68326;52.124;5.424;2023-08-01T11:48:45;100025.38;;;20.27;69.10
71976;BME280;68326;52.124;5.424;2023-08-01T11:51:18;100024.59;;;20.34;69.78
71976;BME280;68326;52.124;5.424;2023-08-01T11:53:44;100023.97;;;20.57;66.72
71976;BME280;68326;52.124;5.424;2023-08-01T11:56:20;100022.69;;;20.69;69.39
71976;BME280;68326;52.124;5.424;2023-08-01T11:58:47;100030.66;;;20.86;66.61
71976;BME280;68326;52.124;5.424;2023-08-01T12:01:14;100021.56;;;20.80;66.16
71976;BME280;68326;52.124;5.424;2023-08-01T12:03:54;100025.38;;;20.86;67.00
71976;BME280;68326;52.124;5.424;2023-08-01T12:06:23;100025.78;;;20.48;67.66
71976;BME280;68326;52.124;5.424;2023-08-01T12:08:52;100029.06;;;20.34;68.17
71976;BME280;68326;52.124;5.424;2023-08-01T12:11:23;100030.84;;;20.25;68.37
71976;BME280;68326;52.124;5.424;2023-08-01T12:16:44;100041.84;;;20.04;67.72
71976;BME280;68326;52.124;5.424;2023-08-01T12:19:17;100046.22;;;19.87;68.28
71976;BME280;68326;52.124;5.424;2023-08-01T12:21:44;100047.06;;;19.70;68.48
71976;BME280;68326;52.124;5.424;2023-08-01T12:24:10;100057.09;;;19.66;68.45
71976;BME280;68326;52.124;5.424;2023-08-01T12:26:40;100048.50;;;19.64;66.33
71976;BME280;68326;52.124;5.424;2023-08-01T12:29:07;100040.19;;;19.51;67.53
71976;BME280;68326;52.124;5.424;2023-08-01T12:31:34;100046.03;;;19.37;68.64
71976;BME280;68326;52.124;5.424;2023-08-01T12:34:01;100060.97;;;19.28;69.74
71976;BME280;68326;52.124;5.424;2023-08-01T12:36:27;100056.09;;;19.15;70.22
71976;BME280;68326;52.124;5.424;2023-08-01T12:38:54;100062.09;;;19.07;69.95
71976;BME280;68326;52.124;5.424;2023-08-01T12:41:20;100068.59;;;18.95;71.40
71976;BME280;68326;52.124;5.424;2023-08-01T12:43:48;100070.84;;;18.90;71.17
71976;BME280;68326;52.124;5.424;2023-08-01T12:46:16;100068.38;;;19.06;71.05
71976;BME280;68326;52.124;5.424;2023-08-01T12:48:43;100063.28;;;19.31;70.07
71976;BME280;68326;52.124;5.424;2023-08-01T12:51:10;100058.88;;;19.58;70.06
71976;BME280;68326;52.124;5.424;2023-08-01T12:53:36;100063.16;;;19.85;70.24
71976;BME280;68326;52.124;5.424;2023-08-01T12:56:05;100054.50;;;20.01;70.62
71976;BME280;68326;52.124;5.424;2023-08-01T12:58:32;100067.13;;;20.15;64.93